Terminal Aerodrome Forecast
Issued by NWS Bismarck, ND

Home | Current Version | Previous Version | Graphics & Text | Print | Product List | Glossary On
Versions: 1 2 3 4 5 6 7 8 9 10 11 12 13 14 15 16
488
FTUS43 KBIS 182326
TAFBIS
TAF
KBIS 182326Z 1900/1924 28008KT P6SM SKC
     FM190300 19004KT P6SM FEW200 FEW250
     FM191000 14004KT P6SM FEW200 SCT250
     FM192000 18008KT P6SM FEW150 FEW250=

USA.gov is the U.S. government's official web portal to all federal, state and local government web resources and services.